createdAt,value
2017-12-03T00:01:01.569Z,98727.29
2017-12-03T00:02:07.553Z,98725.35
2017-12-03T00:03:13.499Z,98721.92
2017-12-03T00:04:19.850Z,98721.36
2017-12-03T00:05:25.798Z,98716.81
2017-12-03T00:06:31.796Z,98720.42
2017-12-03T00:07:37.683Z,98717.46
2017-12-03T00:08:43.603Z,98710.41
2017-12-03T00:09:49.457Z,98713.94
2017-12-03T00:10:55.686Z,98715.16
2017-12-03T00:12:01.613Z,98712.44
2017-12-03T00:13:07.553Z,98714.13
2017-12-03T00:14:13.450Z,98713.94
2017-12-03T00:15:19.297Z,98714.99
2017-12-03T00:16:25.364Z,98711.56
2017-12-03T00:17:31.830Z,98712.84
2017-12-03T00:18:37.946Z,98709.72
2017-12-03T00:19:44.173Z,98709.78
2017-12-03T00:20:50.401Z,98707.32
2017-12-03T00:21:56.552Z,98705.79
2017-12-03T00:23:03.167Z,98711.31
2017-12-03T00:24:09.319Z,98706.84
2017-12-03T00:25:15.484Z,98709.72
2017-12-03T00:26:21.672Z,98708.94
2017-12-03T00:27:28.047Z,98712.05
2017-12-03T00:28:34.544Z,98704.91
2017-12-03T00:29:40.681Z,98709.34
2017-12-03T00:30:46.726Z,98713.80
2017-12-03T00:31:52.859Z,98707.00
2017-12-03T00:32:58.883Z,98713.09
2017-12-03T00:34:05.429Z,98714.93
2017-12-03T00:35:11.714Z,98717.86
2017-12-03T00:36:17.893Z,98717.23
2017-12-03T00:37:24.032Z,98718.33
2017-12-03T00:38:30.237Z,98716.90
2017-12-03T00:39:36.799Z,98721.86
2017-12-03T00:40:42.959Z,98719.86
2017-12-03T00:41:49.059Z,98715.46
2017-12-03T00:42:55.195Z,98712.52
2017-12-03T00:44:01.344Z,98713.71
2017-12-03T00:45:07.700Z,98715.39
2017-12-03T00:46:13.687Z,98706.75
2017-12-03T00:47:19.709Z,98712.68
2017-12-03T00:48:25.712Z,98713.23
2017-12-03T00:49:31.681Z,98716.92
2017-12-03T00:50:38.013Z,98717.05
2017-12-03T00:51:43.999Z,98712.91
2017-12-03T00:52:50.125Z,98715.94
2017-12-03T00:53:56.094Z,98715.46
2017-12-03T00:55:02.029Z,98711.78
2017-12-03T00:56:07.970Z,98711.00
2017-12-03T00:57:14.273Z,98709.00
2017-12-03T00:58:20.233Z,98711.31
2017-12-03T00:59:26.252Z,98719.20
2017-12-03T01:00:32.249Z,98716.34
2017-12-03T01:01:38.265Z,98712.87
2017-12-03T01:02:44.181Z,98714.16
2017-12-03T01:03:50.193Z,98717.59
2017-12-03T01:04:56.202Z,98715.13
2017-12-03T01:06:02.144Z,98714.81
2017-12-03T01:07:08.177Z,98707.60
2017-12-03T01:08:14.174Z,98709.54
2017-12-03T01:09:20.457Z,98705.85
2017-12-03T01:10:26.545Z,98702.33
2017-12-03T01:11:33.067Z,98708.26
2017-12-03T01:12:39.117Z,98705.70
2017-12-03T01:13:45.077Z,98703.39
2017-12-03T01:14:50.897Z,98700.12
2017-12-03T01:15:57.379Z,98700.02
2017-12-03T01:17:03.396Z,98695.97
2017-12-03T01:18:09.430Z,98700.02
2017-12-03T01:19:15.278Z,98694.38
2017-12-03T01:20:21.035Z,98694.03
2017-12-03T01:21:27.061Z,98694.84
2017-12-03T01:22:32.935Z,98697.65
2017-12-03T01:23:39.167Z,98697.72
2017-12-03T01:24:44.909Z,98699.34
2017-12-03T01:25:50.824Z,98699.80
2017-12-03T01:26:56.609Z,98698.12
2017-12-03T01:28:02.943Z,98698.92
2017-12-03T01:29:08.953Z,98696.96
2017-12-03T01:30:15.911Z,98699.89
2017-12-03T01:31:21.875Z,98700.52
2017-12-03T01:32:27.874Z,98701.89
2017-12-03T01:33:33.843Z,98700.36
2017-12-03T01:34:40.327Z,98704.67
2017-12-03T01:35:46.306Z,98698.68
2017-12-03T01:36:52.226Z,98698.77
2017-12-03T01:37:58.214Z,98698.21
2017-12-03T01:39:04.429Z,98699.89
2017-12-03T01:40:10.344Z,98694.53
2017-12-03T01:41:16.800Z,98696.84
2017-12-03T01:42:23.517Z,98693.41
2017-12-03T01:43:29.453Z,98695.34
2017-12-03T01:44:35.250Z,98692.13
2017-12-03T01:45:41.275Z,98689.50
2017-12-03T01:46:47.770Z,98699.02
2017-12-03T01:47:53.858Z,98696.13
2017-12-03T01:48:59.976Z,98697.55
2017-12-03T01:50:06.384Z,98697.00
2017-12-03T01:51:12.461Z,98697.02
2017-12-03T01:52:19.023Z,98699.58
2017-12-03T01:53:25.132Z,98693.09
2017-12-03T01:54:31.235Z,98701.73
2017-12-03T01:55:37.497Z,98704.77
2017-12-03T01:56:43.541Z,98707.07
2017-12-03T01:57:49.812Z,98707.48
2017-12-03T01:58:55.606Z,98712.03
2017-12-03T02:00:01.363Z,98709.00
2017-12-03T02:01:07.132Z,98703.39
2017-12-03T02:02:12.950Z,98703.33
2017-12-03T02:03:18.874Z,98706.20
2017-12-03T02:04:25.238Z,98707.88
2017-12-03T02:05:31.183Z,98700.52
2017-12-03T02:06:37.135Z,98703.39
2017-12-03T02:07:43.089Z,98702.42
2017-12-03T02:08:49.244Z,98704.58
2017-12-03T02:09:55.212Z,98702.67
2017-12-03T02:11:01.610Z,98699.49
2017-12-03T02:12:06.973Z,98701.02
2017-12-03T02:13:12.937Z,98699.39
2017-12-03T02:14:18.942Z,98699.09
2017-12-03T02:15:24.883Z,98697.96
2017-12-03T02:16:31.216Z,98693.34
2017-12-03T02:17:37.653Z,98692.84
2017-12-03T02:18:43.727Z,98693.25
2017-12-03T02:19:49.741Z,98693.88
2017-12-03T02:20:55.840Z,98691.66
2017-12-03T02:22:01.801Z,98690.45
2017-12-03T02:23:07.750Z,98689.82
2017-12-03T02:24:14.154Z,98692.13
2017-12-03T02:25:20.131Z,98688.55
2017-12-03T02:26:26.407Z,98695.72
2017-12-03T02:27:32.455Z,98691.09
2017-12-03T02:28:38.386Z,98689.41
2017-12-03T02:29:44.454Z,98693.72
2017-12-03T02:30:50.424Z,98693.81
2017-12-03T02:31:57.411Z,98690.54
2017-12-03T02:33:03.441Z,98685.67
2017-12-03T02:34:09.428Z,98686.73
2017-12-03T02:35:15.471Z,98685.77
2017-12-03T02:36:21.853Z,98685.92
2017-12-03T02:37:27.869Z,98685.92
2017-12-03T02:38:33.883Z,98689.69
2017-12-03T02:39:39.879Z,98692.72
2017-12-03T02:40:45.904Z,98687.84
2017-12-03T02:41:51.669Z,98686.81
2017-12-03T02:42:57.946Z,98685.59
2017-12-03T02:44:03.807Z,98679.30
2017-12-03T02:45:09.851Z,98676.90
2017-12-03T02:46:15.849Z,98677.20
2017-12-03T02:47:21.942Z,98674.02
2017-12-03T02:48:28.142Z,98674.67
2017-12-03T02:49:34.725Z,98676.66
2017-12-03T02:50:40.862Z,98676.42
2017-12-03T02:51:46.982Z,98679.53
2017-12-03T02:52:53.138Z,98679.86
2017-12-03T02:53:59.259Z,98672.99
2017-12-03T02:55:05.492Z,98671.06
2017-12-03T02:56:12.093Z,98674.18
2017-12-03T02:57:18.269Z,98677.95
2017-12-03T02:58:24.522Z,98669.16
2017-12-03T02:59:30.725Z,98670.13
2017-12-03T03:00:36.850Z,98672.19
2017-12-03T03:01:43.035Z,98668.59
2017-12-03T03:02:49.599Z,98669.96
2017-12-03T03:03:55.767Z,98674.05
2017-12-03T03:05:01.933Z,98666.28
2017-12-03T03:06:08.093Z,98671.15
2017-12-03T03:07:14.268Z,98670.44
2017-12-03T03:08:20.439Z,98672.12
2017-12-03T03:09:26.922Z,98671.47
2017-12-03T03:10:33.088Z,98668.19
2017-12-03T03:11:39.268Z,98668.19
2017-12-03T03:12:45.497Z,98663.89
2017-12-03T03:13:51.661Z,98659.89
2017-12-03T03:14:57.714Z,98660.20
2017-12-03T03:16:04.061Z,98659.02
2017-12-03T03:17:10.760Z,98657.99
2017-12-03T03:18:17.002Z,98652.31
2017-12-03T03:19:23.164Z,98660.05
2017-12-03T03:20:29.418Z,98653.91
2017-12-03T03:21:35.577Z,98655.43
2017-12-03T03:22:43.157Z,98651.09
2017-12-03T03:23:49.358Z,98648.17
2017-12-03T03:24:55.625Z,98654.38
2017-12-03T03:26:01.820Z,98648.95
2017-12-03T03:27:07.923Z,98646.64
2017-12-03T03:28:14.079Z,98642.16
2017-12-03T03:29:20.558Z,98652.63
2017-12-03T03:30:26.706Z,98644.23
2017-12-03T03:31:32.857Z,98639.13
2017-12-03T03:32:39.126Z,98642.55
2017-12-03T03:33:45.338Z,98639.38
2017-12-03T03:34:51.462Z,98634.01
2017-12-03T03:35:58.095Z,98634.10
2017-12-03T03:37:04.259Z,98634.41
2017-12-03T03:38:10.389Z,98630.52
2017-12-03T03:39:16.492Z,98630.42
2017-12-03T03:40:22.748Z,98627.39
2017-12-03T03:41:29.237Z,98629.70
2017-12-03T03:42:35.340Z,98625.48
2017-12-03T03:43:41.366Z,98629.88
2017-12-03T03:44:47.417Z,98622.69
2017-12-03T03:45:53.285Z,98633.30
2017-12-03T03:46:59.195Z,98627.48
2017-12-03T03:48:05.586Z,98621.66
2017-12-03T03:49:11.653Z,98626.45
2017-12-03T03:50:17.611Z,98622.28
2017-12-03T03:51:23.567Z,98628.30
2017-12-03T03:52:29.555Z,98625.02
2017-12-03T03:53:35.526Z,98625.42
2017-12-03T03:54:42.368Z,98626.61
2017-12-03T03:55:49.331Z,98627.14
2017-12-03T03:56:55.272Z,98626.12
2017-12-03T03:58:01.283Z,98631.63
2017-12-03T03:59:07.264Z,98622.22
2017-12-03T04:00:13.224Z,98626.84
2017-12-03T04:01:19.243Z,98620.20
2017-12-03T04:02:25.366Z,98625.88
2017-12-03T04:03:31.379Z,98621.79
2017-12-03T04:04:37.358Z,98625.41
2017-12-03T04:05:43.384Z,98630.02
2017-12-03T04:06:49.631Z,98627.24
2017-12-03T04:07:55.583Z,98626.37
2017-12-03T04:09:01.561Z,98625.56
2017-12-03T04:10:07.537Z,98624.59
2017-12-03T04:11:13.549Z,98624.91
2017-12-03T04:12:19.529Z,98624.91
2017-12-03T04:13:25.957Z,98621.16
2017-12-03T04:14:31.954Z,98623.23
2017-12-03T04:15:37.963Z,98624.84
2017-12-03T04:16:43.990Z,98622.05
2017-12-03T04:17:49.947Z,98622.35
2017-12-03T04:18:55.974Z,98622.45
2017-12-03T04:20:02.370Z,98625.54
2017-12-03T04:21:08.337Z,98620.20
2017-12-03T04:22:14.358Z,98632.25
2017-12-03T04:23:20.330Z,98623.80
2017-12-03T04:24:26.338Z,98630.09
2017-12-03T04:25:33.211Z,98623.48
2017-12-03T04:26:39.692Z,98628.09
2017-12-03T04:27:45.724Z,98622.36
2017-12-03T04:28:51.766Z,98624.84
2017-12-03T04:29:57.878Z,98621.33
2017-12-03T04:31:04.045Z,98620.05
2017-12-03T04:32:10.210Z,98624.91
2017-12-03T04:33:16.741Z,98623.80
2017-12-03T04:34:23.821Z,98625.23
2017-12-03T04:35:29.776Z,98626.82
2017-12-03T04:36:36.323Z,98622.52
2017-12-03T04:37:42.613Z,98628.66
2017-12-03T04:38:49.884Z,98624.05
2017-12-03T04:39:55.876Z,98620.45
2017-12-03T04:41:01.833Z,98628.83
2017-12-03T04:42:07.959Z,98627.09
2017-12-03T04:43:13.929Z,98620.20
2017-12-03T04:44:20.498Z,98623.72
2017-12-03T04:45:26.470Z,98612.53
2017-12-03T04:46:32.769Z,98617.40
2017-12-03T04:47:38.853Z,98619.64
2017-12-03T04:48:44.990Z,98616.62
2017-12-03T04:49:51.488Z,98612.78
2017-12-03T04:50:57.769Z,98612.69
2017-12-03T04:52:03.902Z,98609.42
2017-12-03T04:53:10.107Z,98609.66
2017-12-03T04:54:16.309Z,98610.78
2017-12-03T04:55:22.510Z,98607.36
2017-12-03T04:56:29.260Z,98607.73
2017-12-03T04:57:35.530Z,98604.87
2017-12-03T04:58:41.709Z,98604.71
2017-12-03T04:59:48.004Z,98595.52
2017-12-03T05:00:54.426Z,98596.02
2017-12-03T05:02:00.459Z,98594.89
2017-12-03T05:03:06.827Z,98594.95
2017-12-03T05:04:12.895Z,98602.22
2017-12-03T05:05:18.946Z,98603.03
2017-12-03T05:06:24.911Z,98600.22
2017-12-03T05:07:31.080Z,98596.80
2017-12-03T05:08:37.351Z,98605.18
2017-12-03T05:09:45.022Z,98605.77
2017-12-03T05:10:51.158Z,98606.70
2017-12-03T05:11:57.459Z,98603.03
2017-12-03T05:13:03.783Z,98602.56
2017-12-03T05:14:09.923Z,98602.56
2017-12-03T05:15:16.188Z,98605.73
2017-12-03T05:16:22.872Z,98602.78
2017-12-03T05:17:28.902Z,98605.59
2017-12-03T05:18:36.216Z,98603.03
2017-12-03T05:19:42.223Z,98603.28
2017-12-03T05:20:48.202Z,98602.78
2017-12-03T05:21:54.250Z,98601.44
2017-12-03T05:23:00.588Z,98598.79
2017-12-03T05:24:06.545Z,98603.12
2017-12-03T05:25:12.531Z,98596.80
2017-12-03T05:26:18.486Z,98595.20
2017-12-03T05:27:24.511Z,98595.05
2017-12-03T05:28:30.575Z,98591.37
2017-12-03T05:29:36.913Z,98593.14
2017-12-03T05:30:43.115Z,98596.33
2017-12-03T05:31:48.963Z,98595.05
2017-12-03T05:32:54.846Z,98600.63
2017-12-03T05:34:00.740Z,98595.20
2017-12-03T05:35:06.771Z,98591.22
2017-12-03T05:36:12.823Z,98592.65
2017-12-03T05:37:19.069Z,98588.25
2017-12-03T05:38:25.043Z,98586.11
2017-12-03T05:39:31.039Z,98587.23
2017-12-03T05:40:36.992Z,98590.66
2017-12-03T05:41:43.297Z,98583.70
2017-12-03T05:42:49.603Z,98584.20
2017-12-03T05:43:55.570Z,98581.80
2017-12-03T05:45:01.528Z,98581.80
2017-12-03T05:46:07.561Z,98585.48
2017-12-03T05:47:13.638Z,98585.70
2017-12-03T05:48:19.672Z,98584.83
2017-12-03T05:49:26.226Z,98586.26
2017-12-03T05:50:32.241Z,98587.94
2017-12-03T05:51:38.222Z,98587.84
2017-12-03T05:52:45.230Z,98585.08
2017-12-03T05:53:51.209Z,98592.80
2017-12-03T05:54:57.453Z,98591.78
2017-12-03T05:56:03.871Z,98587.13
2017-12-03T05:57:09.901Z,98589.63
2017-12-03T05:58:15.878Z,98593.77
2017-12-03T05:59:21.879Z,98590.50
2017-12-03T06:00:28.034Z,98590.81
2017-12-03T06:01:34.362Z,98586.66
2017-12-03T06:02:40.401Z,98598.17
2017-12-03T06:03:46.469Z,98590.19
2017-12-03T06:04:52.679Z,98594.48
2017-12-03T06:05:58.810Z,98589.06
2017-12-03T06:07:05.348Z,98590.75
2017-12-03T06:08:11.393Z,98588.91
2017-12-03T06:09:18.119Z,98588.81
2017-12-03T06:10:24.162Z,98590.66
2017-12-03T06:11:30.001Z,98588.66
2017-12-03T06:12:36.395Z,98589.13
2017-12-03T06:13:42.397Z,98591.63
2017-12-03T06:14:48.332Z,98584.02
2017-12-03T06:15:54.359Z,98587.45
2017-12-03T06:17:00.545Z,98588.56
2017-12-03T06:18:06.877Z,98583.95
2017-12-03T06:19:12.966Z,98578.34
2017-12-03T06:20:19.265Z,98582.58
2017-12-03T06:21:25.363Z,98583.70
2017-12-03T06:22:31.638Z,98590.56
2017-12-03T06:23:37.763Z,98592.49
2017-12-03T06:24:44.385Z,98587.23
2017-12-03T06:25:50.439Z,98589.63
2017-12-03T06:26:56.472Z,98595.77
2017-12-03T06:28:02.594Z,98590.75
2017-12-03T06:29:08.630Z,98591.53
2017-12-03T06:30:14.592Z,98587.70
2017-12-03T06:31:21.131Z,98589.53
2017-12-03T06:32:27.120Z,98589.69
2017-12-03T06:33:33.466Z,98585.30
2017-12-03T06:34:39.485Z,98584.83
2017-12-03T06:35:45.532Z,98589.84
2017-12-03T06:36:51.617Z,98585.77
2017-12-03T06:37:58.012Z,98586.26
2017-12-03T06:39:04.505Z,98586.41
2017-12-03T06:40:13.231Z,98588.57
2017-12-03T06:41:19.529Z,98589.13
2017-12-03T06:42:25.585Z,98590.72
2017-12-03T06:43:31.594Z,98584.58
2017-12-03T06:44:38.091Z,98587.13
2017-12-03T06:45:44.098Z,98583.70
2017-12-03T06:46:50.155Z,98585.86
2017-12-03T06:47:56.301Z,98589.22
2017-12-03T06:49:02.366Z,98587.23
2017-12-03T06:50:08.357Z,98591.05
2017-12-03T06:51:14.833Z,98592.34
2017-12-03T06:52:21.677Z,98593.30
2017-12-03T06:53:27.769Z,98587.48
2017-12-03T06:54:33.793Z,98596.73
2017-12-03T06:55:39.817Z,98590.19
2017-12-03T06:56:45.801Z,98595.45
2017-12-03T06:57:52.189Z,98590.72
2017-12-03T06:58:58.234Z,98590.75
2017-12-03T07:00:04.148Z,98590.99
2017-12-03T07:01:10.115Z,98592.65
2017-12-03T07:02:16.210Z,98594.73
2017-12-03T07:03:22.280Z,98592.97
2017-12-03T07:04:28.699Z,98589.06
2017-12-03T07:05:35.001Z,98587.95
2017-12-03T07:06:41.009Z,98581.30
2017-12-03T07:07:47.058Z,98588.34
2017-12-03T07:08:53.068Z,98590.66
2017-12-03T07:09:59.189Z,98585.70
2017-12-03T07:11:05.224Z,98585.86
2017-12-03T07:12:11.279Z,98583.70
2017-12-03T07:13:17.318Z,98591.47
2017-12-03T07:14:23.349Z,98587.69
2017-12-03T07:15:29.366Z,98587.38
2017-12-03T07:16:35.490Z,98588.75
2017-12-03T07:17:41.903Z,98587.62
2017-12-03T07:18:48.018Z,98591.13
2017-12-03T07:19:54.046Z,98587.23
2017-12-03T07:21:00.196Z,98592.65
2017-12-03T07:22:06.219Z,98592.09
2017-12-03T07:23:12.274Z,98594.08
2017-12-03T07:24:18.814Z,98597.92
2017-12-03T07:25:24.838Z,98596.89
2017-12-03T07:26:30.770Z,98595.45
2017-12-03T07:27:36.813Z,98595.05
2017-12-03T07:28:44.078Z,98592.80
2017-12-03T07:29:50.582Z,98597.85
2017-12-03T07:30:56.551Z,98595.20
2017-12-03T07:32:02.591Z,98595.30
2017-12-03T07:33:08.778Z,98593.67
2017-12-03T07:34:15.530Z,98592.65
2017-12-03T07:35:21.839Z,98595.67
2017-12-03T07:36:27.700Z,98601.44
2017-12-03T07:37:33.849Z,98600.88
2017-12-03T07:38:40.154Z,98610.39
2017-12-03T07:39:46.459Z,98599.52
2017-12-03T07:40:53.006Z,98603.34
2017-12-03T07:41:59.159Z,98608.05
2017-12-03T07:43:05.255Z,98605.34
2017-12-03T07:44:11.388Z,98601.97
2017-12-03T07:45:17.471Z,98604.94
2017-12-03T07:46:23.835Z,98606.46
2017-12-03T07:47:29.818Z,98602.31
2017-12-03T07:48:35.997Z,98606.30
2017-12-03T07:49:42.036Z,98600.13
2017-12-03T07:50:48.139Z,98604.31
2017-12-03T07:51:54.611Z,98605.40
2017-12-03T07:53:00.875Z,98601.81
2017-12-03T07:54:07.183Z,98596.70
2017-12-03T07:55:13.172Z,98603.72
2017-12-03T07:56:19.197Z,98600.48
2017-12-03T07:57:25.685Z,98600.79
2017-12-03T07:58:31.722Z,98605.65
2017-12-03T07:59:37.745Z,98601.41
2017-12-03T08:00:44.230Z,98609.27
2017-12-03T08:01:50.316Z,98601.04
2017-12-03T08:02:56.761Z,98605.25
2017-12-03T08:04:02.779Z,98603.59
2017-12-03T08:05:08.774Z,98605.34
2017-12-03T08:06:14.863Z,98603.66
2017-12-03T08:07:20.887Z,98601.19
2017-12-03T08:08:27.448Z,98605.65
2017-12-03T08:09:33.699Z,98601.34
2017-12-03T08:10:39.776Z,98603.72
2017-12-03T08:11:45.784Z,98607.95
2017-12-03T08:12:51.870Z,98608.52
2017-12-03T08:13:57.897Z,98612.76
2017-12-03T08:15:03.913Z,98610.30
2017-12-03T08:16:10.464Z,98613.26
2017-12-03T08:17:20.182Z,98614.69
2017-12-03T08:18:26.544Z,98608.92
2017-12-03T08:19:32.390Z,98613.54
2017-12-03T08:20:38.375Z,98614.81
2017-12-03T08:21:44.945Z,98607.80
2017-12-03T08:22:50.860Z,98612.76
2017-12-03T08:23:57.164Z,98609.55
2017-12-03T08:25:03.161Z,98606.83
2017-12-03T08:26:09.349Z,98607.45
2017-12-03T08:27:15.653Z,98607.86
2017-12-03T08:28:22.628Z,98604.96
2017-12-03T08:29:28.789Z,98602.19
2017-12-03T08:30:34.657Z,98609.05
2017-12-03T08:31:40.473Z,98606.23
2017-12-03T08:32:46.859Z,98609.20
2017-12-03T08:33:52.913Z,98612.00
2017-12-03T08:34:58.985Z,98607.26
2017-12-03T08:36:05.034Z,98611.00
2017-12-03T08:37:11.033Z,98615.34
2017-12-03T08:38:17.032Z,98612.41
2017-12-03T08:39:23.305Z,98616.97
2017-12-03T08:40:29.314Z,98617.43
2017-12-03T08:41:35.348Z,98610.38
2017-12-03T08:42:41.447Z,98608.49
2017-12-03T08:43:47.487Z,98604.90
2017-12-03T08:45:02.590Z,98616.88
2017-12-03T08:46:11.416Z,98608.27
2017-12-03T08:47:17.862Z,98604.20
2017-12-03T08:48:23.992Z,98613.95
2017-12-03T08:49:30.045Z,98605.78
2017-12-03T08:50:37.242Z,98601.80
2017-12-03T08:51:43.622Z,98605.31
2017-12-03T08:52:50.026Z,98605.31
2017-12-03T08:53:57.096Z,98604.29
2017-12-03T08:55:03.091Z,98596.27
2017-12-03T08:56:10.088Z,98603.47
2017-12-03T08:57:16.189Z,98596.52
2017-12-03T08:58:22.700Z,98595.23
2017-12-03T08:59:28.726Z,98592.99
2017-12-03T09:00:34.870Z,98597.32
2017-12-03T09:01:41.002Z,98605.56
2017-12-03T09:02:47.023Z,98602.28
2017-12-03T09:03:52.985Z,98601.80
2017-12-03T09:04:59.271Z,98607.81
2017-12-03T09:06:05.220Z,98605.98
2017-12-03T09:07:11.284Z,98603.17
2017-12-03T09:08:17.361Z,98599.42
2017-12-03T09:09:23.642Z,98597.84
2017-12-03T09:10:29.709Z,98608.73
2017-12-03T09:11:36.082Z,98600.87
2017-12-03T09:12:42.090Z,98612.47
2017-12-03T09:13:48.182Z,98606.42
2017-12-03T09:14:54.369Z,98609.20
2017-12-03T09:16:00.570Z,98613.59
2017-12-03T09:17:06.676Z,98611.75
2017-12-03T09:18:13.113Z,98609.66
2017-12-03T09:19:19.162Z,98603.52
2017-12-03T09:20:25.237Z,98612.48
2017-12-03T09:21:31.277Z,98609.70
2017-12-03T09:22:37.258Z,98608.63
2017-12-03T09:23:43.282Z,98613.28
2017-12-03T09:24:49.750Z,98604.23
2017-12-03T09:25:55.813Z,98602.30
2017-12-03T09:27:01.861Z,98611.91
2017-12-03T09:28:07.977Z,98611.20
2017-12-03T09:29:14.109Z,98614.47
2017-12-03T09:30:20.023Z,98604.86
2017-12-03T09:31:26.361Z,98614.31
2017-12-03T09:32:32.277Z,98606.23
2017-12-03T09:33:38.201Z,98606.60
2017-12-03T09:34:44.264Z,98603.58
2017-12-03T09:35:50.279Z,98610.84
2017-12-03T09:36:56.283Z,98608.69
2017-12-03T09:38:02.430Z,98604.34
2017-12-03T09:39:08.584Z,98601.93
2017-12-03T09:40:15.773Z,98601.53
2017-12-03T09:41:21.777Z,98601.37
2017-12-03T09:42:27.966Z,98602.30
2017-12-03T09:43:34.660Z,98603.72
2017-12-03T09:44:41.070Z,98602.14
2017-12-03T09:45:46.952Z,98602.70
2017-12-03T09:46:53.028Z,98604.95
2017-12-03T09:47:59.046Z,98602.70
2017-12-03T09:49:05.141Z,98599.36
2017-12-03T09:50:11.194Z,98593.38
2017-12-03T09:51:17.012Z,98601.83
2017-12-03T09:52:23.073Z,98596.15
2017-12-03T09:53:29.254Z,98597.02
2017-12-03T09:54:35.309Z,98597.83
2017-12-03T09:55:41.434Z,98598.80
2017-12-03T09:56:47.786Z,98599.02
2017-12-03T09:57:54.258Z,98600.25
2017-12-03T09:59:00.330Z,98596.91
2017-12-03T10:00:06.442Z,98598.34
2017-12-03T10:01:12.543Z,98594.96
2017-12-03T10:02:18.677Z,98595.44
2017-12-03T10:03:24.790Z,98597.70
2017-12-03T10:04:31.393Z,98597.70
2017-12-03T10:05:37.495Z,98596.56
2017-12-03T10:06:43.568Z,98602.23
2017-12-03T10:07:49.522Z,98601.98
2017-12-03T10:08:55.539Z,98590.06
2017-12-03T10:10:01.705Z,98595.23
2017-12-03T10:11:07.883Z,98593.80
2017-12-03T10:12:14.000Z,98595.14
2017-12-03T10:13:20.202Z,98590.42
2017-12-03T10:14:26.428Z,98592.97
2017-12-03T10:15:32.564Z,98591.59
2017-12-03T10:16:38.839Z,98590.48
2017-12-03T10:17:44.850Z,98588.98
2017-12-03T10:18:51.001Z,98590.73
2017-12-03T10:19:56.986Z,98586.34
2017-12-03T10:21:03.063Z,98582.19
2017-12-03T10:22:09.112Z,98584.12
2017-12-03T10:23:15.512Z,98584.64
2017-12-03T10:24:21.646Z,98579.94
2017-12-03T10:25:27.688Z,98581.94
2017-12-03T10:26:33.870Z,98586.90
2017-12-03T10:27:39.969Z,98585.46
2017-12-03T10:28:46.287Z,98582.69
2017-12-03T10:29:53.085Z,98585.31
2017-12-03T10:30:59.197Z,98581.42
2017-12-03T10:32:05.286Z,98578.77
2017-12-03T10:33:11.481Z,98579.73
2017-12-03T10:34:17.701Z,98582.84
2017-12-03T10:35:23.933Z,98582.28
2017-12-03T10:36:30.471Z,98580.84
2017-12-03T10:37:41.452Z,98575.06
2017-12-03T10:38:47.638Z,98577.52
2017-12-03T10:39:53.877Z,98575.36
2017-12-03T10:41:00.201Z,98574.04
2017-12-03T10:42:06.518Z,98572.59
2017-12-03T10:43:13.098Z,98571.77
2017-12-03T10:44:19.443Z,98564.39
2017-12-03T10:45:25.649Z,98570.59
2017-12-03T10:46:32.400Z,98568.55
2017-12-03T10:47:38.548Z,98578.94
2017-12-03T10:48:44.632Z,98572.80
2017-12-03T10:49:51.110Z,98571.88
2017-12-03T10:50:57.279Z,98573.61
2017-12-03T10:52:03.463Z,98563.27
2017-12-03T10:53:09.495Z,98567.97
2017-12-03T10:54:15.499Z,98563.39
2017-12-03T10:55:21.479Z,98560.79
2017-12-03T10:56:27.933Z,98560.79
2017-12-03T10:57:34.004Z,98559.81
2017-12-03T10:58:40.199Z,98554.86
2017-12-03T10:59:46.242Z,98556.12
2017-12-03T11:00:52.225Z,98554.83
2017-12-03T11:01:58.376Z,98555.55
2017-12-03T11:03:04.732Z,98552.72
2017-12-03T11:04:10.695Z,98552.97
2017-12-03T11:05:16.688Z,98551.57
2017-12-03T11:06:22.679Z,98554.44
2017-12-03T11:07:28.808Z,98544.81
2017-12-03T11:08:35.130Z,98538.97
2017-12-03T11:09:41.209Z,98545.16
2017-12-03T11:10:47.348Z,98541.67
2017-12-03T11:11:53.392Z,98546.30
2017-12-03T11:12:59.514Z,98541.90
2017-12-03T11:14:05.606Z,98542.19
2017-12-03T11:15:12.047Z,98538.63
2017-12-03T11:16:18.055Z,98543.22
2017-12-03T11:17:24.187Z,98537.48
2017-12-03T11:18:30.326Z,98532.77
2017-12-03T11:19:36.420Z,98538.08
2017-12-03T11:20:42.463Z,98538.37
2017-12-03T11:21:48.823Z,98536.09
2017-12-03T11:22:54.916Z,98542.32
2017-12-03T11:24:01.098Z,98538.55
2017-12-03T11:25:07.164Z,98545.90
2017-12-03T11:26:13.247Z,98537.83
2017-12-03T11:27:19.262Z,98541.48
2017-12-03T11:28:25.596Z,98539.84
2017-12-03T11:29:32.002Z,98539.41
2017-12-03T11:30:38.059Z,98542.08
2017-12-03T11:31:44.243Z,98542.48
2017-12-03T11:32:50.379Z,98543.24
2017-12-03T11:33:56.473Z,98539.91
2017-12-03T11:35:03.057Z,98537.30
2017-12-03T11:36:09.166Z,98546.59
2017-12-03T11:37:15.380Z,98536.92
2017-12-03T11:38:21.594Z,98534.34
2017-12-03T11:39:27.993Z,98534.73
2017-12-03T11:40:34.013Z,98531.06
2017-12-03T11:41:40.620Z,98526.67
2017-12-03T11:42:46.861Z,98526.81
2017-12-03T11:43:53.182Z,98524.70
2017-12-03T11:44:59.244Z,98527.56
2017-12-03T11:46:05.379Z,98518.04
2017-12-03T11:47:11.529Z,98522.31
2017-12-03T11:48:18.005Z,98521.06
2017-12-03T11:49:24.861Z,98517.33
2017-12-03T11:50:31.178Z,98515.58
2017-12-03T11:51:37.980Z,98512.47
2017-12-03T11:52:44.576Z,98517.22
2017-12-03T11:53:51.289Z,98514.37
2017-12-03T11:54:57.489Z,98509.09
2017-12-03T11:56:03.761Z,98510.41
2017-12-03T11:57:10.129Z,98506.48
2017-12-03T11:58:16.190Z,98501.59
2017-12-03T11:59:22.271Z,98502.70
2017-12-03T12:00:28.872Z,98502.97
2017-12-03T12:01:34.951Z,98500.48
2017-12-03T12:02:40.933Z,98495.48
2017-12-03T12:03:47.009Z,98494.03
2017-12-03T12:04:53.022Z,98496.52
2017-12-03T12:05:59.067Z,98498.74
2017-12-03T12:07:05.421Z,98496.66
2017-12-03T12:08:11.519Z,98501.30
2017-12-03T12:09:17.539Z,98502.94
2017-12-03T12:10:23.606Z,98505.26
2017-12-03T12:11:29.585Z,98495.02
2017-12-03T12:12:35.362Z,98499.65
2017-12-03T12:13:41.610Z,98502.58
2017-12-03T12:14:47.572Z,98502.77
2017-12-03T12:15:53.503Z,98502.06
2017-12-03T12:16:59.415Z,98498.72
2017-12-03T12:18:06.377Z,98495.17
2017-12-03T12:19:13.258Z,98497.23
2017-12-03T12:20:19.732Z,98497.95
2017-12-03T12:21:25.872Z,98489.08
2017-12-03T12:22:32.406Z,98496.73
2017-12-03T12:23:38.439Z,98493.91
2017-12-03T12:24:44.790Z,98496.71
2017-12-03T12:25:50.926Z,98494.70
2017-12-03T12:26:57.312Z,98494.98
2017-12-03T12:28:03.268Z,98491.33
2017-12-03T12:29:09.509Z,98494.58
2017-12-03T12:30:15.572Z,98492.91
2017-12-03T12:31:21.677Z,98491.28
2017-12-03T12:32:27.749Z,98489.12
2017-12-03T12:33:34.099Z,98491.97
2017-12-03T12:34:40.471Z,98491.92
2017-12-03T12:35:46.813Z,98500.91
2017-12-03T12:36:54.031Z,98498.75
2017-12-03T12:38:00.564Z,98495.17
2017-12-03T12:39:06.950Z,98493.02
2017-12-03T12:40:13.780Z,98486.52
2017-12-03T12:41:19.839Z,98483.77
2017-12-03T12:42:26.091Z,98482.34
2017-12-03T12:43:32.338Z,98487.91
2017-12-03T12:44:38.582Z,98483.27
2017-12-03T12:45:44.654Z,98479.09
2017-12-03T12:46:51.310Z,98481.70
2017-12-03T12:47:57.584Z,98482.27
2017-12-03T12:49:03.856Z,98475.02
2017-12-03T12:50:10.053Z,98474.71
2017-12-03T12:51:16.350Z,98478.08
2017-12-03T12:52:22.529Z,98475.56
2017-12-03T12:53:28.917Z,98472.59
2017-12-03T12:54:35.119Z,98465.91
2017-12-03T12:55:41.289Z,98467.27
2017-12-03T12:56:47.591Z,98471.41
2017-12-03T12:57:53.827Z,98462.48